Time;durP1;ratioP1;P1;durP2;ratioP2;P2;SDS_P1;SDS_P2;PMS_P1;PMS_P2;Temp;Humidity;BMP_temperature;BMP_pressure;BME280_temperature;BME280_humidity;BME280_pressure;Samples;Min_cycle;Max_cycle;Signal;HPM_P1;HPM_P2
2021/04/02 00:00:31;;;;;;;43.55;25.90;;;384.80;1612.80;;;;;;4994356;28;20572;-79
2021/04/02 00:02:57;;;;;;;45.78;27.58;;;384.70;1638.40;;;;;;4993930;28;20407;-79
2021/04/02 00:05:23;;;;;;;42.53;29.02;;;384.50;1638.40;;;;;;4993815;28;20048;-76
2021/04/02 00:07:49;;;;;;;49.03;27.95;;;384.50;1638.40;;;;;;4994155;28;20477;-76
2021/04/02 00:10:25;;;;;;;43.05;27.55;;;384.40;1638.40;;;;;;4994076;28;20065;-76
2021/04/02 00:12:50;;;;;;;48.75;28.75;;;384.50;1638.40;;;;;;4993879;28;20040;-77
2021/04/02 00:15:20;;;;;;;39.92;25.85;;;384.40;1638.40;;;;;;4995703;28;20042;-79
2021/04/02 00:17:46;;;;;;;44.15;27.38;;;384.50;1638.40;;;;;;5013576;28;20136;-78
2021/04/02 00:20:16;;;;;;;41.13;25.65;;;384.50;1638.40;;;;;;5013475;28;20030;-79
2021/04/02 00:22:42;;;;;;;42.22;26.63;;;384.30;1664.00;;;;;;5013525;28;20057;-77
2021/04/02 00:25:10;;;;;;;38.15;24.40;;;384.40;1638.40;;;;;;5026005;28;20083;-79
2021/04/02 00:27:35;;;;;;;47.33;25.52;;;384.50;1638.40;;;;;;5034870;28;20040;-78
2021/04/02 00:30:13;;;;;;;42.58;26.05;;;384.50;1638.40;;;;;;5035200;28;20030;-78
2021/04/02 00:32:39;;;;;;;38.95;26.85;;;384.50;1638.40;;;;;;5033871;28;20030;-79
2021/04/02 00:35:05;;;;;;;42.03;26.20;;;384.50;1638.40;;;;;;5035048;28;20474;-76
2021/04/02 00:37:31;;;;;;;42.17;26.65;;;384.40;1638.40;;;;;;5034455;28;20026;-76
2021/04/02 00:39:57;;;;;;;39.58;25.38;;;384.50;1638.40;;;;;;5050326;28;20026;-77
2021/04/02 00:42:23;;;;;;;35.97;24.20;;;384.40;1638.40;;;;;;5033460;28;20029;-78
2021/04/02 00:44:48;;;;;;;40.67;25.58;;;384.40;1638.40;;;;;;5034014;28;20470;-76
2021/04/02 00:47:14;;;;;;;36.40;25.23;;;384.40;1638.40;;;;;;5034587;28;20041;-78
2021/04/02 00:49:40;;;;;;;40.45;25.30;;;384.40;1638.40;;;;;;5049800;28;20083;-76
2021/04/02 00:52:06;;;;;;;39.17;25.45;;;384.40;1638.40;;;;;;5034434;28;20504;-79
2021/04/02 00:54:31;;;;;;;39.17;26.55;;;384.40;1638.40;;;;;;5034681;28;20018;-79
2021/04/02 00:56:57;;;;;;;40.97;26.80;;;384.30;1664.00;;;;;;5033190;28;20426;-79
2021/04/02 00:59:23;;;;;;;41.38;25.95;;;384.20;1664.00;;;;;;5033749;28;20030;-77
2021/04/02 01:01:50;;;;;;;41.70;24.80;;;384.10;1689.60;;;;;;5034521;28;20041;-77
2021/04/02 01:04:16;;;;;;;40.60;25.75;;;384.00;1689.60;;;;;;5034556;28;20068;-78
2021/04/02 01:06:42;;;;;;;42.42;25.50;;;384.00;1689.60;;;;;;5033156;28;20095;-77
2021/04/02 01:09:09;;;;;;;38.47;23.23;;;384.00;1689.60;;;;;;5034088;28;20434;-77
2021/04/02 01:11:35;;;;;;;38.13;23.15;;;359.30;1689.60;;;;;;5034147;28;20076;-78
2021/04/02 01:14:00;;;;;;;35.63;23.95;;;384.00;1689.60;;;;;;5033946;28;20425;-77
2021/04/02 01:16:32;;;;;;;35.67;24.17;;;359.20;1715.20;;;;;;5045623;28;20048;-76
2021/04/02 01:19:27;;;;;;;37.38;25.13;;;359.20;1715.20;;;;;;5054121;28;20025;-78
2021/04/02 01:22:03;;;;;;;41.67;26.77;;;359.00;1740.80;;;;;;5054063;28;20056;-77
2021/04/02 01:24:38;;;;;;;45.33;29.10;;;358.80;1766.40;;;;;;5036227;28;20053;-76
2021/04/02 01:27:22;;;;;;;41.83;28.13;;;358.70;1766.40;;;;;;5053804;28;20124;-78
2021/04/02 01:29:55;;;;;;;44.55;29.30;;;358.60;1792.00;;;;;;5053947;28;20032;-77
2021/04/02 01:32:29;;;;;;;43.47;26.05;;;358.50;1817.60;;;;;;5040843;28;20045;-78
2021/04/02 01:35:14;;;;;;;44.45;27.25;;;358.70;1766.40;;;;;;5033832;28;20496;-76
2021/04/02 01:37:49;;;;;;;44.50;27.17;;;358.60;1792.00;;;;;;5033901;28;20021;-78
2021/04/02 01:40:16;;;;;;;47.63;27.52;;;358.80;1766.40;;;;;;5033893;28;20088;-76
2021/04/02 01:42:44;;;;;;;40.97;28.38;;;358.90;1740.80;;;;;;5033351;28;20081;-78
2021/04/02 01:45:13;;;;;;;39.55;27.42;;;359.00;1715.20;;;;;;5033111;28;20021;-76
2021/04/02 01:47:40;;;;;;;43.75;28.08;;;359.10;1715.20;;;;;;5033391;28;20037;-78
2021/04/02 01:50:10;;;;;;;46.80;27.15;;;359.10;1715.20;;;;;;5033719;28;20033;-77
2021/04/02 01:52:36;;;;;;;45.60;28.58;;;359.10;1740.80;;;;;;5033077;28;20523;-77
2021/04/02 01:55:03;;;;;;;46.00;27.70;;;359.00;1740.80;;;;;;5031449;28;20029;-76
2021/04/02 01:57:30;;;;;;;41.95;26.58;;;359.00;1792.00;;;;;;5014863;28;20049;-76
2021/04/02 01:59:57;;;;;;;39.47;24.50;;;358.90;1792.00;;;;;;5033555;28;20469;-79
2021/04/02 02:02:25;;;;;;;32.95;19.20;;;359.00;1792.00;;;;;;5015987;28;20021;-79
2021/04/02 02:04:52;;;;;;;27.38;16.83;;;359.20;1766.40;;;;;;5032881;28;20082;-76
2021/04/02 02:07:18;;;;;;;25.67;14.52;;;384.00;1715.20;;;;;;5031504;28;20129;-79
2021/04/02 02:09:46;;;;;;;24.88;15.05;;;384.10;1715.20;;;;;;5033307;28;20037;-77
2021/04/02 02:12:15;;;;;;;22.83;14.32;;;384.30;1715.20;;;;;;5031375;28;20028;-77
2021/04/02 02:14:46;;;;;;;17.20;12.32;;;384.20;1715.20;;;;;;5015546;28;20037;-76
2021/04/02 02:17:16;;;;;;;19.80;11.57;;;384.20;1715.20;;;;;;5031791;28;20416;-76
2021/04/02 02:19:43;;;;;;;16.38;11.93;;;384.20;1715.20;;;;;;5033297;28;20465;-76
2021/04/02 02:22:11;;;;;;;15.07;10.35;;;384.10;1715.20;;;;;;5033198;28;20026;-76
2021/04/02 02:24:38;;;;;;;15.52;9.98;;;384.20;1715.20;;;;;;5033013;28;20127;-79
2021/04/02 02:27:07;;;;;;;18.65;9.52;;;384.20;1715.20;;;;;;5032970;28;20075;-79
2021/04/02 02:29:34;;;;;;;15.85;7.88;;;384.30;1715.20;;;;;;5033372;28;20108;-79
2021/04/02 02:32:00;;;;;;;25.05;7.40;;;384.30;1740.80;;;;;;5032056;28;20485;-77
2021/04/02 02:34:26;;;;;;;15.00;6.28;;;384.40;1740.80;;;;;;5033199;28;20366;-77
2021/04/02 02:36:53;;;;;;;7.78;5.20;;;384.50;1740.80;;;;;;5033233;28;20087;-77
2021/04/02 02:39:18;;;;;;;12.52;5.30;;;384.50;1766.40;;;;;;5033160;28;20025;-76
2021/04/02 02:41:44;;;;;;;11.73;3.40;;;384.60;1740.80;;;;;;5031113;28;20029;-78
2021/04/02 02:44:11;;;;;;;7.35;3.03;;;384.70;1740.80;;;;;;5033554;28;20079;-77
2021/04/02 02:46:37;;;;;;;14.10;2.88;;;384.90;1715.20;;;;;;5031498;28;20057;-79
2021/04/02 02:49:12;;;;;;;15.88;3.17;;;409.70;1689.60;;;;;;5033167;28;20040;-75
2021/04/02 02:51:40;;;;;;;9.50;2.85;;;409.90;1638.40;;;;;;5032920;28;20033;-76
2021/04/02 02:54:09;;;;;;;11.30;3.38;;;410.20;1612.80;;;;;;5032918;28;20017;-76
2021/04/02 02:56:36;;;;;;;12.95;2.38;;;410.30;1612.80;;;;;;5032903;28;20029;-79
2021/04/02 02:59:06;;;;;;;11.13;3.10;;;410.50;1561.60;;;;;;5015104;28;20026;-76
2021/04/02 03:01:34;;;;;;;15.10;3.03;;;435.20;1536.00;;;;;;5032863;28;20022;-80
2021/04/02 03:04:01;;;;;;;10.32;2.97;;;435.30;1561.60;;;;;;5032861;28;20151;-75
2021/04/02 03:06:30;;;;;;;14.13;2.97;;;435.30;1612.80;;;;;;5032803;28;20033;-75
2021/04/02 03:08:58;;;;;;;10.60;4.15;;;410.30;1766.40;;;;;;5032768;28;20021;-75
2021/04/02 03:11:24;;;;;;;12.13;3.60;;;409.90;1971.20;;;;;;5032831;28;20107;-77
2021/04/02 03:13:51;;;;;;;8.68;2.85;;;384.80;1996.80;;;;;;5032656;28;20065;-79
2021/04/02 03:16:19;;;;;;;5.78;2.83;;;384.70;1971.20;;;;;;5042584;28;20036;-75
2021/04/02 03:18:48;;;;;;;8.52;3.53;;;384.90;1894.40;;;;;;5049909;28;20021;-75
2021/04/02 03:21:15;;;;;;;9.93;4.50;;;384.90;1945.60;;;;;;5023444;28;20107;-81
2021/04/02 03:23:45;;;;;;;9.70;3.92;;;384.70;2048.00;;;;;;5037707;28;20017;-76
2021/04/02 03:26:13;;;;;;;10.02;3.40;;;384.80;2022.40;;;;;;5018828;28;20040;-76
2021/04/02 03:28:43;;;;;;;7.32;2.45;;;384.60;2022.40;;;;;;5041548;28;20025;-75
2021/04/02 03:31:11;;;;;;;9.57;2.97;;;384.70;1945.60;;;;;;5040633;28;20417;-76
2021/04/02 03:33:41;;;;;;;6.35;2.72;;;384.90;1920.00;;;;;;5042640;28;20085;-75
2021/04/02 03:36:11;;;;;;;8.18;3.33;;;384.90;1971.20;;;;;;5040364;28;20029;-75
2021/04/02 03:38:42;;;;;;;5.82;3.25;;;384.90;2022.40;;;;;;5032939;28;20117;-77
2021/04/02 03:41:12;;;;;;;7.97;3.63;;;384.90;2048.00;;;;;;5037784;28;20027;-76
2021/04/02 03:43:39;;;;;;;8.35;3.58;;;384.80;2048.00;;;;;;5041060;28;20009;-75
2021/04/02 03:46:08;;;;;;;9.80;4.38;;;384.90;2048.00;;;;;;5029220;28;20492;-76
2021/04/02 03:48:36;;;;;;;7.95;4.78;;;384.90;2073.60;;;;;;5036675;28;20064;-81
2021/04/02 03:51:05;;;;;;;6.55;4.50;;;384.80;2099.20;;;;;;5054848;28;20024;-81
2021/04/02 03:53:36;;;;;;;14.40;5.68;;;384.80;2124.80;;;;;;5054999;28;20021;-81
2021/04/02 03:56:05;;;;;;;8.13;5.22;;;384.80;2124.80;;;;;;5055164;28;20493;-81
2021/04/02 03:58:32;;;;;;;9.07;5.88;;;384.70;2124.80;;;;;;5051335;28;20055;-80
2021/04/02 04:01:07;;;;;;;9.82;6.30;;;384.70;2150.40;;;;;;5054795;28;20410;-81
2021/04/02 04:03:38;;;;;;;16.73;8.35;;;384.70;2124.80;;;;;;5053170;28;20032;-81
2021/04/02 04:06:07;;;;;;;16.50;8.40;;;384.50;2150.40;;;;;;5053446;28;20075;-76
2021/04/02 04:08:35;;;;;;;15.48;9.38;;;384.50;2150.40;;;;;;5054857;28;20456;-76
2021/04/02 04:11:03;;;;;;;10.18;6.97;;;384.50;2150.40;;;;;;5054492;28;20024;-75
2021/04/02 04:13:33;;;;;;;14.23;5.80;;;384.50;2150.40;;;;;;5051952;28;20051;-76
2021/04/02 04:16:01;;;;;;;8.75;4.88;;;384.40;2150.40;;;;;;5061107;28;20054;-76
2021/04/02 04:18:27;;;;;;;11.45;5.07;;;384.40;2150.40;;;;;;5054460;28;20063;-77
2021/04/02 04:20:56;;;;;;;9.40;5.60;;;384.30;2176.00;;;;;;5054695;28;20028;-75
2021/04/02 04:23:23;;;;;;;7.47;5.15;;;384.30;2176.00;;;;;;5054314;28;20087;-76
2021/04/02 04:25:52;;;;;;;8.20;5.00;;;384.20;2176.00;;;;;;5034187;28;20033;-75
2021/04/02 04:28:19;;;;;;;7.72;5.20;;;384.20;2176.00;;;;;;5054349;28;20078;-82
2021/04/02 04:30:51;;;;;;;8.55;5.80;;;384.10;2201.60;;;;;;5054178;28;20556;-76
2021/04/02 04:33:18;;;;;;;11.43;5.97;;;384.10;2201.60;;;;;;5052874;28;20357;-76
2021/04/02 04:35:47;;;;;;;9.43;5.13;;;384.20;2201.60;;;;;;5053197;28;20111;-75
2021/04/02 04:38:16;;;;;;;9.65;5.35;;;384.20;2201.60;;;;;;5054103;28;20028;-81
2021/04/02 04:40:42;;;;;;;8.50;5.43;;;384.20;2201.60;;;;;;5054136;28;20468;-75
2021/04/02 04:43:12;;;;;;;16.60;6.85;;;384.20;2201.60;;;;;;5051328;28;20108;-81
2021/04/02 04:45:38;;;;;;;13.50;8.27;;;384.10;2227.20;;;;;;5053096;28;20021;-76
2021/04/02 04:48:05;;;;;;;20.27;12.02;;;384.00;2278.40;;;;;;5053874;28;20079;-75
2021/04/02 04:50:31;;;;;;;11.77;7.78;;;359.20;2304.00;;;;;;5053976;28;20013;-75
2021/04/02 04:53:17;;;;;;;11.15;6.78;;;359.30;2278.40;;;;;;5053760;28;20071;-81
2021/04/02 04:55:45;;;;;;;22.33;11.38;;;384.00;2278.40;;;;;;5051972;28;20017;-76
2021/04/02 04:58:14;;;;;;;46.25;19.95;;;384.00;2252.80;;;;;;5054722;28;20039;-76
2021/04/02 05:00:42;;;;;;;13.02;6.22;;;384.10;2252.80;;;;;;5054863;28;20373;-76
2021/04/02 05:03:14;;;;;;;11.57;5.80;;;384.20;2201.60;;;;;;5054879;28;20021;-76
2021/04/02 05:05:43;;;;;;;6.60;5.35;;;384.30;2201.60;;;;;;5054557;28;20024;-75
2021/04/02 05:08:13;;;;;;;9.52;5.47;;;384.30;2176.00;;;;;;5054822;28;20025;-76
2021/04/02 05:10:41;;;;;;;14.07;5.65;;;384.40;2150.40;;;;;;5054568;28;20021;-77
2021/04/02 05:13:08;;;;;;;11.27;4.60;;;384.40;2150.40;;;;;;5054426;28;20064;-76
2021/04/02 05:15:35;;;;;;;9.90;5.00;;;384.50;2124.80;;;;;;5054379;28;20037;-75
2021/04/02 05:18:02;;;;;;;10.65;5.68;;;384.60;2124.80;;;;;;5054504;28;20044;-75
2021/04/02 05:20:46;;;;;;;10.68;4.97;;;384.50;2150.40;;;;;;5054452;28;20043;-75
2021/04/02 05:23:17;;;;;;;6.65;4.28;;;384.60;2150.40;;;;;;5054425;28;20465;-77
2021/04/02 05:25:43;;;;;;;11.35;5.13;;;384.60;2124.80;;;;;;5054120;28;20572;-76
2021/04/02 05:28:09;;;;;;;8.40;4.72;;;384.60;2124.80;;;;;;5054361;28;20078;-75
2021/04/02 05:30:36;;;;;;;12.13;5.45;;;384.70;2150.40;;;;;;5054367;28;20499;-76
2021/04/02 05:33:03;;;;;;;9.50;5.20;;;384.70;2150.40;;;;;;5054162;28;20017;-78
2021/04/02 05:35:29;;;;;;;13.43;5.55;;;384.70;2124.80;;;;;;5054135;28;20021;-76
2021/04/02 05:37:55;;;;;;;9.35;5.45;;;384.80;2124.80;;;;;;5054090;28;20047;-76
2021/04/02 05:40:21;;;;;;;14.65;7.47;;;384.80;2124.80;;;;;;5053328;28;20025;-77
2021/04/02 05:43:05;;;;;;;14.38;9.23;;;384.90;2124.80;;;;;;5054100;28;20059;-77
2021/04/02 05:45:34;;;;;;;12.73;9.10;;;384.90;2176.00;;;;;;5035576;28;20029;-77
2021/04/02 05:48:01;;;;;;;20.88;14.73;;;409.60;2201.60;;;;;;5052531;28;20492;-79
2021/04/02 05:50:30;;;;;;;40.72;24.25;;;409.70;2201.60;;;;;;5053919;28;20029;-77
2021/04/02 05:53:01;;;;;;;33.20;21.10;;;409.70;2201.60;;;;;;5052496;28;20025;-79
2021/04/02 05:55:28;;;;;;;27.33;18.35;;;409.90;2176.00;;;;;;5053639;28;20052;-79
2021/04/02 05:57:54;;;;;;;14.32;7.65;;;410.00;2150.40;;;;;;5053659;28;20358;-77
2021/04/02 06:00:21;;;;;;;8.10;4.82;;;410.00;2099.20;;;;;;5054040;28;20146;-77
2021/04/02 06:02:49;;;;;;;9.88;4.20;;;410.10;2099.20;;;;;;5054001;28;20025;-77
2021/04/02 06:05:16;;;;;;;7.50;4.95;;;410.20;2073.60;;;;;;5053977;28;20029;-76
2021/04/02 06:07:43;;;;;;;9.00;5.07;;;410.20;2099.20;;;;;;5052438;28;20155;-79
2021/04/02 06:10:09;;;;;;;8.30;5.03;;;410.20;2124.80;;;;;;5053919;28;20017;-75
2021/04/02 06:12:37;;;;;;;6.75;4.22;;;410.20;2124.80;;;;;;5052202;28;20060;-77
2021/04/02 06:15:06;;;;;;;9.85;4.85;;;410.20;2099.20;;;;;;5051851;28;20082;-76
2021/04/02 06:18:00;;;;;;;10.60;5.00;;;410.00;2150.40;;;;;;5033896;28;20057;-77
2021/04/02 06:20:31;;;;;;;8.50;4.55;;;409.90;2150.40;;;;;;5033284;28;20029;-76
2021/04/02 06:23:07;;;;;;;8.32;4.40;;;410.00;2124.80;;;;;;5028030;28;20022;-79
2021/04/02 06:25:33;;;;;;;8.85;5.32;;;409.80;2124.80;;;;;;5028623;28;20075;-77
2021/04/02 06:27:59;;;;;;;10.48;5.25;;;409.80;2176.00;;;;;;5032830;28;20366;-78
2021/04/02 06:30:29;;;;;;;47.17;20.65;;;409.90;2099.20;;;;;;5032532;28;20024;-79
2021/04/02 06:32:55;;;;;;;28.40;14.70;;;409.80;2150.40;;;;;;5032837;28;20014;-78
2021/04/02 06:35:25;;;;;;;11.30;7.43;;;409.80;2124.80;;;;;;5032779;28;20021;-76
2021/04/02 06:37:55;;;;;;;11.57;7.50;;;409.90;2073.60;;;;;;5032971;28;20492;-84
2021/04/02 06:40:22;;;;;;;10.07;6.25;;;409.90;2073.60;;;;;;5032731;28;20082;-77
2021/04/02 06:42:48;;;;;;;9.02;4.85;;;410.00;2048.00;;;;;;5024098;28;20030;-79
2021/04/02 06:45:15;;;;;;;7.22;4.00;;;410.00;2073.60;;;;;;5020478;28;20036;-77
2021/04/02 06:47:42;;;;;;;8.55;4.47;;;409.90;2099.20;;;;;;5004386;28;20057;-78
2021/04/02 06:50:23;;;;;;;6.50;4.18;;;409.90;2099.20;;;;;;5029005;28;20109;-78
2021/04/02 06:52:57;;;;;;;7.97;5.78;;;409.90;2124.80;;;;;;5030048;28;20068;-76
2021/04/02 06:55:24;;;;;;;11.75;5.97;;;410.00;2124.80;;;;;;5032542;28;20045;-76
2021/04/02 06:57:52;;;;;;;10.25;6.15;;;410.00;2124.80;;;;;;5031775;28;20026;-77
2021/04/02 07:00:22;;;;;;;9.88;6.30;;;409.90;2150.40;;;;;;5036482;28;20555;-79
2021/04/02 07:02:50;;;;;;;13.00;6.47;;;410.00;2150.40;;;;;;5012571;28;20394;-76
2021/04/02 07:05:18;;;;;;;9.88;6.95;;;409.90;2176.00;;;;;;5022798;28;20013;-77
2021/04/02 07:07:53;;;;;;;9.52;6.10;;;409.90;2150.40;;;;;;5044869;28;20087;-77
2021/04/02 07:10:21;;;;;;;11.70;7.32;;;410.00;2150.40;;;;;;5029268;28;20410;-77
2021/04/02 07:12:53;;;;;;;13.40;6.72;;;409.90;2150.40;;;;;;5033116;28;20486;-79
2021/04/02 07:15:19;;;;;;;15.15;7.22;;;410.00;2150.40;;;;;;5035105;28;20049;-77
2021/04/02 07:17:45;;;;;;;16.58;7.03;;;410.10;2150.40;;;;;;5054947;28;20029;-79
2021/04/02 07:20:12;;;;;;;14.52;8.38;;;410.10;2150.40;;;;;;5056095;28;20484;-78
2021/04/02 07:22:40;;;;;;;15.52;9.25;;;410.10;2176.00;;;;;;5054704;28;20465;-77
2021/04/02 07:25:07;;;;;;;13.68;7.47;;;410.20;2150.40;;;;;;5056243;28;20025;-77
2021/04/02 07:27:35;;;;;;;17.30;8.63;;;410.30;2124.80;;;;;;5054779;28;20041;-76
2021/04/02 07:30:03;;;;;;;10.93;6.97;;;410.50;2150.40;;;;;;5054928;28;20361;-78
2021/04/02 07:32:31;;;;;;;12.85;7.05;;;410.50;2073.60;;;;;;5054743;28;20088;-77
2021/04/02 07:34:57;;;;;;;13.40;6.35;;;435.20;2048.00;;;;;;5056065;28;20067;-77
2021/04/02 07:37:23;;;;;;;16.00;7.15;;;435.30;2048.00;;;;;;5054827;28;20035;-77
2021/04/02 07:39:53;;;;;;;12.35;7.07;;;435.50;2022.40;;;;;;5055870;28;20475;-77
2021/04/02 07:42:21;;;;;;;12.23;7.72;;;435.60;2022.40;;;;;;5054797;28;20230;-79
2021/04/02 07:44:54;;;;;;;21.73;12.15;;;435.60;2022.40;;;;;;5055562;28;20033;-77
2021/04/02 07:47:21;;;;;;;13.93;7.95;;;435.70;1996.80;;;;;;5055922;28;20044;-77
2021/04/02 07:49:51;;;;;;;13.30;6.80;;;435.80;1996.80;;;;;;5055772;28;20029;-77
2021/04/02 07:52:17;;;;;;;10.07;5.60;;;435.80;1971.20;;;;;;5055838;28;20031;-78
2021/04/02 07:54:46;;;;;;;11.50;6.00;;;435.80;1920.00;;;;;;5055686;28;20021;-78
2021/04/02 07:57:12;;;;;;;11.50;6.35;;;435.70;1945.60;;;;;;5055585;28;20021;-77
2021/04/02 07:59:40;;;;;;;11.50;6.75;;;435.70;1920.00;;;;;;5055596;28;20554;-77
2021/04/02 08:02:13;;;;;;;10.75;5.88;;;435.70;1920.00;;;;;;5037621;28;20365;-77
2021/04/02 08:04:53;;;;;;;13.15;6.13;;;435.80;1920.00;;;;;;5054402;28;20025;-79
2021/04/02 08:07:32;;;;;;;10.93;6.47;;;435.80;1971.20;;;;;;5055213;28;20029;-76
2021/04/02 08:10:01;;;;;;;11.68;6.32;;;435.90;1971.20;;;;;;5055410;28;20100;-76
2021/04/02 08:12:30;;;;;;;16.40;9.48;;;436.00;1945.60;;;;;;5055227;28;20017;-77
2021/04/02 08:14:58;;;;;;;20.38;8.80;;;436.00;1945.60;;;;;;5055152;28;20021;-76
2021/04/02 08:17:26;;;;;;;19.73;7.55;;;435.90;1920.00;;;;;;5053797;28;20052;-76
2021/04/02 08:20:01;;;;;;;13.05;7.25;;;436.00;1894.40;;;;;;5055292;28;20016;-77
2021/04/02 08:22:27;;;;;;;12.35;7.63;;;436.10;1868.80;;;;;;5055206;28;20361;-79
2021/04/02 08:24:53;;;;;;;15.27;8.20;;;460.80;1868.80;;;;;;5055224;28;20025;-77
2021/04/02 08:27:18;;;;;;;17.20;8.23;;;461.00;1843.20;;;;;;5054624;28;20090;-77
2021/04/02 08:29:46;;;;;;;15.55;8.00;;;461.00;1817.60;;;;;;5041509;28;20017;-79
2021/04/02 08:32:14;;;;;;;15.60;9.30;;;461.00;1817.60;;;;;;5055212;28;20021;-79
2021/04/02 08:34:43;;;;;;;14.90;9.23;;;461.00;1817.60;;;;;;5041027;28;20025;-76
2021/04/02 08:37:11;;;;;;;12.05;7.22;;;461.20;1817.60;;;;;;5037236;28;20028;-79
2021/04/02 08:39:38;;;;;;;14.40;7.75;;;461.20;1843.20;;;;;;5051034;28;20032;-79
2021/04/02 08:42:05;;;;;;;14.43;8.52;;;461.20;1817.60;;;;;;5054965;28;20480;-76
2021/04/02 08:44:42;;;;;;;11.23;8.48;;;461.20;1817.60;;;;;;5052898;28;20119;-76
2021/04/02 08:47:16;;;;;;;20.92;9.40;;;461.30;1817.60;;;;;;5054739;28;20037;-77
2021/04/02 08:49:47;;;;;;;15.98;8.85;;;461.30;1817.60;;;;;;5054625;28;20480;-77
2021/04/02 08:52:19;;;;;;;16.80;9.85;;;461.30;1792.00;;;;;;5054333;28;20024;-76
2021/04/02 08:54:45;;;;;;;14.80;8.32;;;461.40;1843.20;;;;;;5054639;28;20017;-76
2021/04/02 08:57:13;;;;;;;18.85;9.75;;;461.40;1843.20;;;;;;5054492;28;20013;-78
2021/04/02 08:59:42;;;;;;;19.70;10.20;;;461.40;1766.40;;;;;;5054437;28;20135;-75
2021/04/02 09:02:08;;;;;;;15.73;9.40;;;461.40;1843.20;;;;;;5054485;28;20017;-79
2021/04/02 09:04:35;;;;;;;18.75;11.40;;;461.40;1817.60;;;;;;5054186;28;20031;-76
2021/04/02 09:07:02;;;;;;;17.02;10.98;;;461.50;1792.00;;;;;;5054059;28;20033;-75
2021/04/02 09:09:30;;;;;;;19.48;11.00;;;461.50;1817.60;;;;;;5053923;28;20473;-75
2021/04/02 09:11:56;;;;;;;17.05;10.93;;;461.50;1792.00;;;;;;5045520;28;20052;-76
2021/04/02 09:14:25;;;;;;;17.27;11.55;;;461.40;1740.80;;;;;;5042649;28;20498;-80
2021/04/02 09:16:55;;;;;;;18.17;11.88;;;461.50;1766.40;;;;;;5024557;28;20057;-75
2021/04/02 09:19:22;;;;;;;27.15;14.48;;;461.50;1766.40;;;;;;5048566;28;20029;-77
2021/04/02 09:21:53;;;;;;;29.95;15.00;;;461.50;1792.00;;;;;;5049077;28;20090;-75
2021/04/02 09:24:20;;;;;;;25.02;12.85;;;461.60;1740.80;;;;;;5053885;28;20017;-76
2021/04/02 09:26:46;;;;;;;21.50;12.88;;;461.60;1715.20;;;;;;5053465;28;20045;-77
2021/04/02 09:29:14;;;;;;;30.00;15.90;;;461.70;1715.20;;;;;;5053728;28;20100;-76
2021/04/02 09:31:42;;;;;;;26.75;14.43;;;461.70;1740.80;;;;;;5053719;28;20107;-76
2021/04/02 09:34:19;;;;;;;22.23;14.13;;;461.70;1766.40;;;;;;5053809;28;20028;-76
2021/04/02 09:36:49;;;;;;;19.75;13.30;;;486.40;1766.40;;;;;;5050534;28;20025;-77
2021/04/02 09:39:16;;;;;;;23.23;14.00;;;486.50;1689.60;;;;;;5053687;28;20409;-75
2021/04/02 09:41:48;;;;;;;22.95;13.98;;;486.60;1664.00;;;;;;5053605;28;20051;-77
2021/04/02 09:44:16;;;;;;;23.27;13.30;;;486.70;1638.40;;;;;;5053700;28;20021;-78
2021/04/02 09:46:44;;;;;;;28.58;15.65;;;486.80;1638.40;;;;;;5053281;28;20025;-76
2021/04/02 09:49:21;;;;;;;21.92;14.27;;;487.00;1638.40;;;;;;5053618;28;20029;-79
2021/04/02 09:51:54;;;;;;;22.85;14.43;;;487.10;1638.40;;;;;;5053342;28;20059;-77
2021/04/02 09:54:25;;;;;;;20.98;13.95;;;512.00;1587.20;;;;;;5053463;28;20047;-77
2021/04/02 09:56:59;;;;;;;22.50;14.07;;;512.20;1587.20;;;;;;5053329;28;20025;-78
2021/04/02 09:59:25;;;;;;;20.05;14.10;;;512.50;1510.40;;;;;;5053001;28;20071;-77
2021/04/02 10:01:51;;;;;;;26.65;14.93;;;512.50;1561.60;;;;;;5052888;28;20381;-79
2021/04/02 10:04:18;;;;;;;21.48;14.65;;;512.50;1536.00;;;;;;5053206;28;20063;-77
2021/04/02 10:06:44;;;;;;;23.33;13.48;;;512.30;1536.00;;;;;;5052090;28;20036;-78
2021/04/02 10:09:11;;;;;;;27.10;14.43;;;512.20;1561.60;;;;;;5053083;28;20505;-79
2021/04/02 10:11:38;;;;;;;24.98;13.07;;;512.10;1561.60;;;;;;5053232;28;20021;-78
2021/04/02 10:14:05;;;;;;;23.65;13.25;;;487.30;1510.40;;;;;;5052994;28;20013;-78
2021/04/02 10:16:32;;;;;;;25.45;12.45;;;487.20;1484.80;;;;;;5052754;28;20049;-78
2021/04/02 10:18:58;;;;;;;24.80;14.15;;;487.10;1459.20;;;;;;5053117;28;20036;-79
2021/04/02 10:21:25;;;;;;;23.17;13.05;;;487.00;1484.80;;;;;;5035216;28;20399;-79
2021/04/02 10:23:52;;;;;;;25.90;14.57;;;487.00;1484.80;;;;;;5052417;28;20041;-79
2021/04/02 10:26:19;;;;;;;21.55;14.43;;;487.00;1459.20;;;;;;5052908;28;20021;-79
2021/04/02 10:28:45;;;;;;;23.27;13.35;;;486.90;1459.20;;;;;;5052918;28;20013;-80
2021/04/02 10:31:12;;;;;;;23.85;14.52;;;486.90;1459.20;;;;;;5052357;28;20021;-79
2021/04/02 10:33:38;;;;;;;26.95;15.45;;;487.00;1459.20;;;;;;5033691;28;20057;-78
2021/04/02 10:36:04;;;;;;;25.10;14.10;;;486.90;1510.40;;;;;;5051983;28;20110;-80
2021/04/02 10:38:30;;;;;;;25.52;15.18;;;486.90;1484.80;;;;;;5035332;28;20021;-78
2021/04/02 10:40:56;;;;;;;28.15;15.55;;;486.80;1459.20;;;;;;5035839;28;20508;-81
2021/04/02 10:43:22;;;;;;;24.95;14.13;;;486.80;1459.20;;;;;;5036771;28;20136;-79
2021/04/02 10:45:48;;;;;;;22.42;14.45;;;486.80;1433.60;;;;;;5044783;28;20033;-76
2021/04/02 10:48:14;;;;;;;31.58;14.90;;;487.00;1459.20;;;;;;5046786;28;20017;-80
2021/04/02 10:50:43;;;;;;;25.50;14.35;;;512.00;1433.60;;;;;;5046891;28;20334;-78
2021/04/02 10:53:10;;;;;;;23.13;13.50;;;512.50;1382.40;;;;;;5039966;28;20021;-80
2021/04/02 10:55:36;;;;;;;23.52;14.18;;;512.90;1408.00;;;;;;5029601;28;20025;-78
2021/04/02 10:58:05;;;;;;;29.67;14.68;;;537.60;1382.40;;;;;;5035475;28;20040;-80
2021/04/02 11:00:32;;;;;;;25.10;14.35;;;537.90;1382.40;;;;;;5036995;28;20053;-78
2021/04/02 11:02:57;;;;;;;25.25;14.70;;;537.90;1331.20;;;;;;5037833;28;20026;-81
2021/04/02 11:05:23;;;;;;;30.30;15.07;;;538.10;1382.40;;;;;;5039253;28;20039;-78
2021/04/02 11:07:49;;;;;;;22.25;14.90;;;538.00;1305.60;;;;;;5033550;28;20060;-79
2021/04/02 11:10:15;;;;;;;29.40;18.75;;;538.00;1331.20;;;;;;5028376;28;20444;-79
2021/04/02 11:12:41;;;;;;;30.15;17.25;;;538.00;1356.80;;;;;;5045948;28;20021;-80
2021/04/02 11:15:08;;;;;;;27.25;14.05;;;538.30;1280.00;;;;;;5031244;28;20035;-78
2021/04/02 11:17:34;;;;;;;23.15;13.65;;;563.20;1254.40;;;;;;5051941;28;20128;-78
2021/04/02 11:20:01;;;;;;;24.05;13.75;;;563.20;1228.80;;;;;;5051013;28;20056;-77
2021/04/02 11:22:26;;;;;;;22.17;13.18;;;538.50;1228.80;;;;;;5052331;28;20021;-78
2021/04/02 11:24:52;;;;;;;22.30;13.35;;;538.40;1177.60;;;;;;5052231;28;20424;-81
2021/04/02 11:27:19;;;;;;;27.77;15.13;;;563.20;1254.40;;;;;;5052177;28;20029;-78
2021/04/02 11:29:45;;;;;;;24.05;15.63;;;563.30;1228.80;;;;;;5050568;28;20104;-82
2021/04/02 11:32:12;;;;;;;31.80;15.15;;;563.30;1228.80;;;;;;5052280;28;20104;-78
2021/04/02 11:34:38;;;;;;;23.08;15.35;;;563.40;1254.40;;;;;;5052057;28;20036;-80
2021/04/02 11:37:05;;;;;;;24.38;14.00;;;563.40;1228.80;;;;;;5052308;28;20025;-78
2021/04/02 11:39:32;;;;;;;22.33;13.68;;;563.30;1280.00;;;;;;5050816;28;20082;-78
2021/04/02 11:41:57;;;;;;;20.65;13.32;;;538.40;1228.80;;;;;;5052312;28;20028;-80
2021/04/02 11:44:23;;;;;;;28.90;14.90;;;538.30;1203.20;;;;;;5052223;28;20059;-78
2021/04/02 11:46:50;;;;;;;23.55;14.10;;;538.00;1228.80;;;;;;5054499;28;20051;-84
2021/04/02 11:49:17;;;;;;;25.15;11.57;;;537.70;1254.40;;;;;;5056040;28;20052;-78
2021/04/02 11:51:43;;;;;;;28.95;11.43;;;512.90;1203.20;;;;;;5055683;28;20096;-78
2021/04/02 11:54:08;;;;;;;22.10;11.38;;;512.60;1203.20;;;;;;5055721;28;20021;-78
2021/04/02 11:56:35;;;;;;;20.85;10.85;;;512.40;1254.40;;;;;;5055783;28;20025;-78
2021/04/02 11:59:00;;;;;;;21.48;11.98;;;512.20;1254.40;;;;;;5055607;28;20025;-79
2021/04/02 12:01:26;;;;;;;25.58;13.30;;;512.00;1280.00;;;;;;5051078;28;20031;-78
2021/04/02 12:03:52;;;;;;;22.45;13.55;;;512.00;1331.20;;;;;;5046793;28;20094;-79
2021/04/02 12:06:18;;;;;;;24.45;12.85;;;512.10;1356.80;;;;;;5044942;28;20021;-83
2021/04/02 12:08:44;;;;;;;29.02;12.68;;;512.30;1331.20;;;;;;5050645;28;20028;-78
2021/04/02 12:11:10;;;;;;;24.55;12.25;;;512.50;1331.20;;;;;;5045910;28;20029;-77